sensor_id;sensor_type;location;lat;lon;timestamp;pressure;altitude;pressure_sealevel;temperature;humidity
9415;BME280;4746;35.664;139.738;2023-05-07T00:00:29;99492.44;;;26.49;59.41
9415;BME280;4746;35.664;139.738;2023-05-07T00:02:57;99517.25;;;26.57;59.65
9415;BME280;4746;35.664;139.738;2023-05-07T00:05:25;99509.03;;;26.62;59.29
9415;BME280;4746;35.664;139.738;2023-05-07T00:07:53;99501.56;;;26.68;59.29
9415;BME280;4746;35.664;139.738;2023-05-07T00:10:22;99528.78;;;26.79;59.14
9415;BME280;4746;35.664;139.738;2023-05-07T00:12:50;99509.78;;;26.76;59.30
9415;BME280;4746;35.664;139.738;2023-05-07T00:15:18;99493.03;;;26.77;59.52
9415;BME280;4746;35.664;139.738;2023-05-07T00:17:45;99528.69;;;26.81;59.03
9415;BME280;4746;35.664;139.738;2023-05-07T00:20:13;99493.75;;;26.79;59.16
9415;BME280;4746;35.664;139.738;2023-05-07T00:22:40;99510.06;;;26.84;59.35
9415;BME280;4746;35.664;139.738;2023-05-07T00:25:12;99527.31;;;26.88;58.91
9415;BME280;4746;35.664;139.738;2023-05-07T00:27:40;99543.53;;;26.82;59.27
9415;BME280;4746;35.664;139.738;2023-05-07T00:30:08;99547.09;;;26.81;59.39
9415;BME280;4746;35.664;139.738;2023-05-07T00:32:36;99534.03;;;26.79;59.35
9415;BME280;4746;35.664;139.738;2023-05-07T00:35:05;99525.00;;;26.83;59.40
9415;BME280;4746;35.664;139.738;2023-05-07T00:37:33;99522.50;;;26.82;59.43
9415;BME280;4746;35.664;139.738;2023-05-07T00:40:00;99511.34;;;26.78;59.43
9415;BME280;4746;35.664;139.738;2023-05-07T00:42:31;99519.22;;;26.78;59.45
9415;BME280;4746;35.664;139.738;2023-05-07T00:44:59;99519.13;;;26.80;59.50
9415;BME280;4746;35.664;139.738;2023-05-07T00:47:29;99531.31;;;26.81;59.59
9415;BME280;4746;35.664;139.738;2023-05-07T00:50:00;99521.84;;;26.78;60.13
9415;BME280;4746;35.664;139.738;2023-05-07T00:52:29;99513.44;;;26.86;59.50
9415;BME280;4746;35.664;139.738;2023-05-07T00:54:57;99534.25;;;26.89;59.57
9415;BME280;4746;35.664;139.738;2023-05-07T00:57:25;99526.25;;;26.90;59.43
9415;BME280;4746;35.664;139.738;2023-05-07T00:59:53;99537.50;;;26.92;59.21
9415;BME280;4746;35.664;139.738;2023-05-07T01:02:20;99530.66;;;26.90;59.58
9415;BME280;4746;35.664;139.738;2023-05-07T01:04:48;99525.22;;;26.93;59.72
9415;BME280;4746;35.664;139.738;2023-05-07T01:07:16;99533.09;;;26.93;59.73
9415;BME280;4746;35.664;139.738;2023-05-07T01:09:43;99519.72;;;26.96;59.65
9415;BME280;4746;35.664;139.738;2023-05-07T01:12:12;99543.28;;;26.97;59.14
9415;BME280;4746;35.664;139.738;2023-05-07T01:14:40;99539.72;;;26.98;59.36
9415;BME280;4746;35.664;139.738;2023-05-07T01:17:08;99531.72;;;27.00;59.57
9415;BME280;4746;35.664;139.738;2023-05-07T01:19:35;99528.16;;;27.01;59.42
9415;BME280;4746;35.664;139.738;2023-05-07T01:22:10;99535.28;;;27.11;59.38
9415;BME280;4746;35.664;139.738;2023-05-07T01:24:41;99542.25;;;27.12;59.42
9415;BME280;4746;35.664;139.738;2023-05-07T01:27:08;99524.66;;;27.13;59.37
9415;BME280;4746;35.664;139.738;2023-05-07T01:29:36;99520.97;;;27.15;59.55
9415;BME280;4746;35.664;139.738;2023-05-07T01:32:04;99538.75;;;27.24;59.33
9415;BME280;4746;35.664;139.738;2023-05-07T01:34:36;99518.59;;;27.36;59.01
9415;BME280;4746;35.664;139.738;2023-05-07T01:37:04;99524.28;;;27.42;59.00
9415;BME280;4746;35.664;139.738;2023-05-07T01:39:33;99522.75;;;27.50;58.93
9415;BME280;4746;35.664;139.738;2023-05-07T01:42:01;99518.53;;;27.60;58.83
9415;BME280;4746;35.664;139.738;2023-05-07T01:44:29;99526.16;;;27.76;58.29
9415;BME280;4746;35.664;139.738;2023-05-07T01:46:58;99500.28;;;27.93;58.33
9415;BME280;4746;35.664;139.738;2023-05-07T01:49:26;99515.75;;;28.08;57.51
9415;BME280;4746;35.664;139.738;2023-05-07T01:51:55;99505.03;;;28.22;57.14
9415;BME280;4746;35.664;139.738;2023-05-07T01:54:27;99509.13;;;28.37;57.30
9415;BME280;4746;35.664;139.738;2023-05-07T01:56:57;99507.38;;;28.49;56.86
9415;BME280;4746;35.664;139.738;2023-05-07T01:59:27;99511.44;;;28.53;56.91
9415;BME280;4746;35.664;139.738;2023-05-07T02:01:54;99502.97;;;28.60;56.47
9415;BME280;4746;35.664;139.738;2023-05-07T02:04:21;99511.44;;;28.64;56.49
9415;BME280;4746;35.664;139.738;2023-05-07T02:06:49;99507.03;;;28.53;56.61
9415;BME280;4746;35.664;139.738;2023-05-07T02:09:17;99492.50;;;28.48;56.62
9415;BME280;4746;35.664;139.738;2023-05-07T02:11:44;99506.91;;;28.44;56.52
9415;BME280;4746;35.664;139.738;2023-05-07T02:14:12;99505.09;;;28.44;56.61
9415;BME280;4746;35.664;139.738;2023-05-07T02:16:39;99501.63;;;28.44;56.44
9415;BME280;4746;35.664;139.738;2023-05-07T02:19:07;99504.47;;;28.41;56.49
9415;BME280;4746;35.664;139.738;2023-05-07T02:21:34;99507.97;;;28.41;56.39
9415;BME280;4746;35.664;139.738;2023-05-07T02:24:02;99498.72;;;28.36;56.75
9415;BME280;4746;35.664;139.738;2023-05-07T02:26:29;99483.63;;;28.27;56.84
9415;BME280;4746;35.664;139.738;2023-05-07T02:28:57;99496.75;;;28.16;56.90
9415;BME280;4746;35.664;139.738;2023-05-07T02:31:24;99488.31;;;28.11;57.08
9415;BME280;4746;35.664;139.738;2023-05-07T02:33:52;99476.34;;;28.07;57.22
9415;BME280;4746;35.664;139.738;2023-05-07T02:36:19;99486.41;;;28.02;57.16
9415;BME280;4746;35.664;139.738;2023-05-07T02:38:47;99474.28;;;28.00;57.24
9415;BME280;4746;35.664;139.738;2023-05-07T02:41:14;99477.28;;;28.06;57.44
9415;BME280;4746;35.664;139.738;2023-05-07T02:43:42;99473.03;;;28.16;57.13
9415;BME280;4746;35.664;139.738;2023-05-07T02:46:10;99484.44;;;28.27;57.28
9415;BME280;4746;35.664;139.738;2023-05-07T02:48:37;99480.03;;;28.28;57.07
9415;BME280;4746;35.664;139.738;2023-05-07T02:51:06;99476.41;;;28.29;57.26
9415;BME280;4746;35.664;139.738;2023-05-07T02:53:33;99471.28;;;28.27;57.23
9415;BME280;4746;35.664;139.738;2023-05-07T02:56:02;99476.66;;;28.26;57.09
9415;BME280;4746;35.664;139.738;2023-05-07T02:58:29;99472.28;;;28.14;57.64
9415;BME280;4746;35.664;139.738;2023-05-07T03:00:57;99485.94;;;28.08;57.35
9415;BME280;4746;35.664;139.738;2023-05-07T03:03:25;99486.97;;;27.95;57.70
9415;BME280;4746;35.664;139.738;2023-05-07T03:05:53;99471.22;;;27.82;58.18
9415;BME280;4746;35.664;139.738;2023-05-07T03:08:20;99468.44;;;27.73;58.24
9415;BME280;4746;35.664;139.738;2023-05-07T03:10:48;99474.06;;;27.68;58.64
9415;BME280;4746;35.664;139.738;2023-05-07T03:13:16;99476.19;;;27.63;58.95
9415;BME280;4746;35.664;139.738;2023-05-07T03:15:46;99465.75;;;27.62;58.98
9415;BME280;4746;35.664;139.738;2023-05-07T03:18:17;99470.13;;;27.50;59.22
9415;BME280;4746;35.664;139.738;2023-05-07T03:20:44;99475.72;;;27.46;59.20
9415;BME280;4746;35.664;139.738;2023-05-07T03:23:11;99466.25;;;27.43;59.70
9415;BME280;4746;35.664;139.738;2023-05-07T03:25:39;99464.56;;;27.42;59.53
9415;BME280;4746;35.664;139.738;2023-05-07T03:28:06;99467.19;;;27.42;59.68
9415;BME280;4746;35.664;139.738;2023-05-07T03:30:34;99473.19;;;27.44;59.90
9415;BME280;4746;35.664;139.738;2023-05-07T03:33:01;99471.63;;;27.42;60.04
9415;BME280;4746;35.664;139.738;2023-05-07T03:35:29;99473.31;;;27.43;60.11
9415;BME280;4746;35.664;139.738;2023-05-07T03:37:56;99482.03;;;27.43;59.80
9415;BME280;4746;35.664;139.738;2023-05-07T03:40:24;99481.09;;;27.44;60.63
9415;BME280;4746;35.664;139.738;2023-05-07T03:42:51;99481.81;;;27.46;60.28
9415;BME280;4746;35.664;139.738;2023-05-07T03:45:19;99480.84;;;27.47;60.29
9415;BME280;4746;35.664;139.738;2023-05-07T03:47:46;99479.16;;;27.46;60.35
9415;BME280;4746;35.664;139.738;2023-05-07T03:50:14;99485.50;;;27.44;60.70
9415;BME280;4746;35.664;139.738;2023-05-07T03:52:41;99493.41;;;27.44;60.55
9415;BME280;4746;35.664;139.738;2023-05-07T03:55:09;99497.59;;;27.46;61.11
9415;BME280;4746;35.664;139.738;2023-05-07T03:57:37;99500.47;;;27.43;60.86
9415;BME280;4746;35.664;139.738;2023-05-07T04:00:05;99506.91;;;27.39;61.37
9415;BME280;4746;35.664;139.738;2023-05-07T04:02:34;99502.81;;;27.36;60.95
9415;BME280;4746;35.664;139.738;2023-05-07T04:05:01;99504.94;;;27.31;61.19
9415;BME280;4746;35.664;139.738;2023-05-07T04:07:32;99509.25;;;27.32;61.61
9415;BME280;4746;35.664;139.738;2023-05-07T04:10:04;99505.59;;;27.22;61.63
9415;BME280;4746;35.664;139.738;2023-05-07T04:12:32;99512.38;;;27.13;62.17
9415;BME280;4746;35.664;139.738;2023-05-07T04:14:59;99506.44;;;27.22;61.92
9415;BME280;4746;35.664;139.738;2023-05-07T04:17:27;99496.53;;;27.26;61.78
9415;BME280;4746;35.664;139.738;2023-05-07T04:19:54;99501.59;;;27.29;61.66
9415;BME280;4746;35.664;139.738;2023-05-07T04:22:22;99500.53;;;27.31;61.93
9415;BME280;4746;35.664;139.738;2023-05-07T04:24:49;99500.53;;;27.31;61.97
9415;BME280;4746;35.664;139.738;2023-05-07T04:27:18;99486.19;;;27.35;61.99
9415;BME280;4746;35.664;139.738;2023-05-07T04:29:45;99496.38;;;27.39;62.31
9415;BME280;4746;35.664;139.738;2023-05-07T04:32:14;99489.69;;;27.46;61.80
9415;BME280;4746;35.664;139.738;2023-05-07T04:34:41;99482.09;;;27.54;62.02
9415;BME280;4746;35.664;139.738;2023-05-07T04:37:09;99501.97;;;27.58;61.54
9415;BME280;4746;35.664;139.738;2023-05-07T04:39:37;99504.72;;;27.57;61.76
9415;BME280;4746;35.664;139.738;2023-05-07T04:42:04;99509.69;;;27.61;61.62
9415;BME280;4746;35.664;139.738;2023-05-07T04:44:35;99500.00;;;27.62;61.84
9415;BME280;4746;35.664;139.738;2023-05-07T04:47:04;99519.78;;;27.67;61.51
9415;BME280;4746;35.664;139.738;2023-05-07T04:49:31;99505.78;;;27.54;60.16
9415;BME280;4746;35.664;139.738;2023-05-07T04:51:59;99506.16;;;27.38;57.88
9415;BME280;4746;35.664;139.738;2023-05-07T04:54:26;99512.78;;;26.95;56.71
9415;BME280;4746;35.664;139.738;2023-05-07T04:56:54;99522.59;;;26.56;56.36
9415;BME280;4746;35.664;139.738;2023-05-07T04:59:21;99527.16;;;26.27;56.51
9415;BME280;4746;35.664;139.738;2023-05-07T05:01:49;99520.72;;;26.06;56.19
9415;BME280;4746;35.664;139.738;2023-05-07T05:04:16;99516.50;;;25.92;56.70
9415;BME280;4746;35.664;139.738;2023-05-07T05:06:44;99518.13;;;25.80;56.23
9415;BME280;4746;35.664;139.738;2023-05-07T05:09:11;99526.88;;;25.67;56.44
9415;BME280;4746;35.664;139.738;2023-05-07T05:11:39;99534.22;;;25.48;55.62
9415;BME280;4746;35.664;139.738;2023-05-07T05:14:07;99540.41;;;25.21;55.96
9415;BME280;4746;35.664;139.738;2023-05-07T05:16:34;99535.25;;;25.05;56.34
9415;BME280;4746;35.664;139.738;2023-05-07T05:19:03;99549.09;;;24.93;55.90
9415;BME280;4746;35.664;139.738;2023-05-07T05:21:32;99545.44;;;24.82;56.11
9415;BME280;4746;35.664;139.738;2023-05-07T05:24:00;99552.47;;;24.67;56.37
9415;BME280;4746;35.664;139.738;2023-05-07T05:26:27;99540.84;;;24.57;55.66
9415;BME280;4746;35.664;139.738;2023-05-07T05:28:55;99536.34;;;24.46;56.08
9415;BME280;4746;35.664;139.738;2023-05-07T05:31:22;99541.88;;;24.26;55.15
9415;BME280;4746;35.664;139.738;2023-05-07T05:33:50;99549.50;;;24.01;55.57
9415;BME280;4746;35.664;139.738;2023-05-07T05:36:17;99551.56;;;23.81;54.95
9415;BME280;4746;35.664;139.738;2023-05-07T05:38:45;99553.06;;;23.69;55.86
9415;BME280;4746;35.664;139.738;2023-05-07T05:41:12;99551.13;;;23.57;55.49
9415;BME280;4746;35.664;139.738;2023-05-07T05:43:40;99558.81;;;23.45;55.52
9415;BME280;4746;35.664;139.738;2023-05-07T05:46:07;99557.31;;;23.25;55.55
9415;BME280;4746;35.664;139.738;2023-05-07T05:48:37;99557.78;;;23.16;56.40
9415;BME280;4746;35.664;139.738;2023-05-07T05:51:05;99554.72;;;23.08;56.37
9415;BME280;4746;35.664;139.738;2023-05-07T05:53:32;99549.16;;;22.99;56.50
9415;BME280;4746;35.664;139.738;2023-05-07T05:56:02;99563.09;;;22.83;56.57
9415;BME280;4746;35.664;139.738;2023-05-07T05:58:29;99555.31;;;22.66;56.61
9415;BME280;4746;35.664;139.738;2023-05-07T06:00:57;99548.72;;;22.59;57.24
9415;BME280;4746;35.664;139.738;2023-05-07T06:03:25;99546.25;;;22.56;57.35
9415;BME280;4746;35.664;139.738;2023-05-07T06:05:52;99544.13;;;22.47;56.77
9415;BME280;4746;35.664;139.738;2023-05-07T06:08:20;99543.81;;;22.36;57.02
9415;BME280;4746;35.664;139.738;2023-05-07T06:10:48;99546.16;;;22.24;56.87
9415;BME280;4746;35.664;139.738;2023-05-07T06:13:15;99540.91;;;22.08;57.25
9415;BME280;4746;35.664;139.738;2023-05-07T06:15:43;99555.00;;;22.04;57.58
9415;BME280;4746;35.664;139.738;2023-05-07T06:18:10;99536.97;;;22.00;57.57
9415;BME280;4746;35.664;139.738;2023-05-07T06:20:37;99544.09;;;21.96;57.85
9415;BME280;4746;35.664;139.738;2023-05-07T06:23:05;99558.81;;;21.97;58.12
9415;BME280;4746;35.664;139.738;2023-05-07T06:25:32;99546.63;;;21.98;58.49
9415;BME280;4746;35.664;139.738;2023-05-07T06:28:00;99534.28;;;22.01;58.21
9415;BME280;4746;35.664;139.738;2023-05-07T06:30:27;99535.63;;;21.91;57.97
9415;BME280;4746;35.664;139.738;2023-05-07T06:32:55;99530.88;;;21.82;57.72
9415;BME280;4746;35.664;139.738;2023-05-07T06:35:22;99550.94;;;21.82;57.96
9415;BME280;4746;35.664;139.738;2023-05-07T06:37:50;99560.66;;;21.78;57.72
9415;BME280;4746;35.664;139.738;2023-05-07T06:40:17;99555.34;;;21.80;58.02
9415;BME280;4746;35.664;139.738;2023-05-07T06:42:45;99556.06;;;21.83;57.68
9415;BME280;4746;35.664;139.738;2023-05-07T06:45:12;99556.34;;;21.77;57.70
9415;BME280;4746;35.664;139.738;2023-05-07T06:47:41;99561.56;;;21.77;58.43
9415;BME280;4746;35.664;139.738;2023-05-07T06:50:09;99567.63;;;21.78;58.47
9415;BME280;4746;35.664;139.738;2023-05-07T06:52:36;99576.22;;;21.80;58.42
9415;BME280;4746;35.664;139.738;2023-05-07T06:55:04;99578.91;;;21.78;58.60
9415;BME280;4746;35.664;139.738;2023-05-07T06:57:32;99574.53;;;21.79;58.59
9415;BME280;4746;35.664;139.738;2023-05-07T07:00:00;99573.91;;;21.74;58.82
9415;BME280;4746;35.664;139.738;2023-05-07T07:02:27;99571.44;;;21.71;58.42
9415;BME280;4746;35.664;139.738;2023-05-07T07:04:55;99564.69;;;21.67;58.36
9415;BME280;4746;35.664;139.738;2023-05-07T07:07:22;99560.63;;;21.62;58.65
9415;BME280;4746;35.664;139.738;2023-05-07T07:09:50;99569.56;;;21.56;58.92
9415;BME280;4746;35.664;139.738;2023-05-07T07:12:18;99575.13;;;21.49;58.66
9415;BME280;4746;35.664;139.738;2023-05-07T07:14:47;99588.44;;;21.43;59.29
9415;BME280;4746;35.664;139.738;2023-05-07T07:17:14;99586.03;;;21.38;58.98
9415;BME280;4746;35.664;139.738;2023-05-07T07:19:41;99597.47;;;21.36;59.38
9415;BME280;4746;35.664;139.738;2023-05-07T07:22:09;99606.19;;;21.35;59.13
9415;BME280;4746;35.664;139.738;2023-05-07T07:24:36;99585.34;;;21.35;59.44
9415;BME280;4746;35.664;139.738;2023-05-07T07:27:04;99581.31;;;21.28;59.63
9415;BME280;4746;35.664;139.738;2023-05-07T07:29:31;99579.66;;;21.27;59.85
9415;BME280;4746;35.664;139.738;2023-05-07T07:31:59;99572.59;;;21.29;60.08
9415;BME280;4746;35.664;139.738;2023-05-07T07:34:26;99575.91;;;21.32;59.49
9415;BME280;4746;35.664;139.738;2023-05-07T07:36:54;99582.94;;;21.30;59.37
9415;BME280;4746;35.664;139.738;2023-05-07T07:39:22;99576.09;;;21.28;59.74
9415;BME280;4746;35.664;139.738;2023-05-07T07:41:49;99580.06;;;21.18;59.55
9415;BME280;4746;35.664;139.738;2023-05-07T07:44:17;99587.16;;;21.14;59.55
9415;BME280;4746;35.664;139.738;2023-05-07T07:46:44;99595.97;;;21.12;60.28
9415;BME280;4746;35.664;139.738;2023-05-07T07:49:12;99603.06;;;21.08;60.41
9415;BME280;4746;35.664;139.738;2023-05-07T07:51:39;99597.78;;;21.10;60.57
9415;BME280;4746;35.664;139.738;2023-05-07T07:54:07;99591.81;;;21.08;60.42
9415;BME280;4746;35.664;139.738;2023-05-07T07:56:37;99591.81;;;21.08;60.61
9415;BME280;4746;35.664;139.738;2023-05-07T07:59:05;99601.34;;;21.09;60.82
9415;BME280;4746;35.664;139.738;2023-05-07T08:01:32;99602.38;;;21.05;60.45
9415;BME280;4746;35.664;139.738;2023-05-07T08:04:00;99596.41;;;21.03;60.54
9415;BME280;4746;35.664;139.738;2023-05-07T08:06:30;99585.03;;;21.04;60.49
9415;BME280;4746;35.664;139.738;2023-05-07T08:08:57;99580.63;;;21.06;60.60
9415;BME280;4746;35.664;139.738;2023-05-07T08:11:25;99583.28;;;21.04;60.48
9415;BME280;4746;35.664;139.738;2023-05-07T08:13:53;99606.03;;;21.01;60.53
9415;BME280;4746;35.664;139.738;2023-05-07T08:16:21;99601.72;;;21.00;60.14
9415;BME280;4746;35.664;139.738;2023-05-07T08:18:49;99578.19;;;21.01;60.48
9415;BME280;4746;35.664;139.738;2023-05-07T08:21:16;99579.34;;;20.96;59.89
9415;BME280;4746;35.664;139.738;2023-05-07T08:23:44;99598.03;;;20.86;60.37
9415;BME280;4746;35.664;139.738;2023-05-07T08:26:12;99611.25;;;20.81;60.69
9415;BME280;4746;35.664;139.738;2023-05-07T08:28:39;99616.63;;;20.78;60.78
9415;BME280;4746;35.664;139.738;2023-05-07T08:31:07;99610.44;;;20.81;60.96
9415;BME280;4746;35.664;139.738;2023-05-07T08:33:34;99619.16;;;20.80;61.00
9415;BME280;4746;35.664;139.738;2023-05-07T08:36:02;99626.31;;;20.75;60.48
9415;BME280;4746;35.664;139.738;2023-05-07T08:38:29;99604.72;;;20.71;61.14
9415;BME280;4746;35.664;139.738;2023-05-07T08:40:57;99590.09;;;20.69;61.04
9415;BME280;4746;35.664;139.738;2023-05-07T08:43:27;99604.22;;;20.63;60.87
9415;BME280;4746;35.664;139.738;2023-05-07T08:46:00;99628.03;;;20.54;60.84
9415;BME280;4746;35.664;139.738;2023-05-07T08:48:31;99616.19;;;20.47;61.35
9415;BME280;4746;35.664;139.738;2023-05-07T08:50:59;99624.00;;;20.47;61.93
9415;BME280;4746;35.664;139.738;2023-05-07T08:53:27;99602.28;;;20.48;61.78
9415;BME280;4746;35.664;139.738;2023-05-07T08:55:56;99613.53;;;20.49;61.79
9415;BME280;4746;35.664;139.738;2023-05-07T08:58:26;99609.44;;;20.43;61.65
9415;BME280;4746;35.664;139.738;2023-05-07T09:00:54;99597.44;;;20.39;61.70
9415;BME280;4746;35.664;139.738;2023-05-07T09:03:21;99606.19;;;20.38;61.56
9415;BME280;4746;35.664;139.738;2023-05-07T09:05:49;99605.53;;;20.33;61.94
9415;BME280;4746;35.664;139.738;2023-05-07T09:08:26;99599.28;;;20.37;61.99
9415;BME280;4746;35.664;139.738;2023-05-07T09:11:03;99586.38;;;20.34;62.25
9415;BME280;4746;35.664;139.738;2023-05-07T09:13:30;99583.94;;;20.31;61.63
9415;BME280;4746;35.664;139.738;2023-05-07T09:16:12;99584.81;;;20.30;61.37
9415;BME280;4746;35.664;139.738;2023-05-07T09:18:45;99602.66;;;20.20;61.34
9415;BME280;4746;35.664;139.738;2023-05-07T09:21:18;99602.00;;;20.15;61.78
9415;BME280;4746;35.664;139.738;2023-05-07T09:23:45;99596.91;;;20.12;61.72
9415;BME280;4746;35.664;139.738;2023-05-07T09:26:14;99590.88;;;20.11;62.21
9415;BME280;4746;35.664;139.738;2023-05-07T09:28:43;99597.03;;;20.09;61.85
9415;BME280;4746;35.664;139.738;2023-05-07T09:31:11;99602.50;;;20.03;61.93
9415;BME280;4746;35.664;139.738;2023-05-07T09:33:40;99621.72;;;19.99;62.09
9415;BME280;4746;35.664;139.738;2023-05-07T09:36:09;99622.75;;;19.95;62.13
9415;BME280;4746;35.664;139.738;2023-05-07T09:38:38;99599.16;;;19.99;62.08
9415;BME280;4746;35.664;139.738;2023-05-07T09:41:13;99586.88;;;20.03;61.98
9415;BME280;4746;35.664;139.738;2023-05-07T09:43:41;99591.66;;;19.92;61.81
9415;BME280;4746;35.664;139.738;2023-05-07T09:46:13;99611.66;;;19.90;62.18
9415;BME280;4746;35.664;139.738;2023-05-07T09:48:45;99610.81;;;19.89;62.24
9415;BME280;4746;35.664;139.738;2023-05-07T09:51:39;99595.00;;;19.95;62.00
9415;BME280;4746;35.664;139.738;2023-05-07T09:54:09;99589.31;;;19.86;62.03
9415;BME280;4746;35.664;139.738;2023-05-07T09:56:38;99567.28;;;19.73;61.95
9415;BME280;4746;35.664;139.738;2023-05-07T09:59:13;99579.66;;;19.66;61.92
9415;BME280;4746;35.664;139.738;2023-05-07T10:01:43;99592.22;;;19.57;61.86
9415;BME280;4746;35.664;139.738;2023-05-07T10:04:12;99599.44;;;19.49;62.17
9415;BME280;4746;35.664;139.738;2023-05-07T10:06:40;99586.53;;;19.46;62.10
9415;BME280;4746;35.664;139.738;2023-05-07T10:09:08;99575.25;;;19.47;62.19
9415;BME280;4746;35.664;139.738;2023-05-07T10:11:37;99564.84;;;19.47;62.68
9415;BME280;4746;35.664;139.738;2023-05-07T10:14:05;99576.22;;;19.45;62.37
9415;BME280;4746;35.664;139.738;2023-05-07T10:16:36;99580.59;;;19.44;62.34
9415;BME280;4746;35.664;139.738;2023-05-07T10:19:05;99572.00;;;19.42;62.69
9415;BME280;4746;35.664;139.738;2023-05-07T10:21:49;99568.25;;;19.49;62.63
9415;BME280;4746;35.664;139.738;2023-05-07T10:24:29;99576.88;;;19.50;62.59
9415;BME280;4746;35.664;139.738;2023-05-07T10:27:02;99568.25;;;19.49;62.63
9415;BME280;4746;35.664;139.738;2023-05-07T10:29:39;99561.38;;;19.48;62.46
9415;BME280;4746;35.664;139.738;2023-05-07T10:32:40;99574.03;;;19.34;62.29
9415;BME280;4746;35.664;139.738;2023-05-07T10:35:32;99572.34;;;19.33;62.58
9415;BME280;4746;35.664;139.738;2023-05-07T10:38:05;99555.06;;;19.32;62.48
9415;BME280;4746;35.664;139.738;2023-05-07T10:40:33;99559.38;;;19.33;62.50
9415;BME280;4746;35.664;139.738;2023-05-07T10:43:04;99553.25;;;19.34;62.67
9415;BME280;4746;35.664;139.738;2023-05-07T10:45:32;99549.97;;;19.29;62.76
9415;BME280;4746;35.664;139.738;2023-05-07T10:48:15;99548.19;;;19.31;62.54
9415;BME280;4746;35.664;139.738;2023-05-07T10:50:45;99548.31;;;19.28;62.68
9415;BME280;4746;35.664;139.738;2023-05-07T10:55:50;99545.75;;;19.27;62.53
9415;BME280;4746;35.664;139.738;2023-05-07T11:00:50;99562.31;;;19.24;63.08
9415;BME280;4746;35.664;139.738;2023-05-07T11:03:18;99558.94;;;19.22;62.87
9415;BME280;4746;35.664;139.738;2023-05-07T11:05:45;99566.84;;;19.19;63.02
9415;BME280;4746;35.664;139.738;2023-05-07T11:08:14;99556.38;;;19.21;63.04
9415;BME280;4746;35.664;139.738;2023-05-07T11:10:58;99564.81;;;19.27;62.92
9415;BME280;4746;35.664;139.738;2023-05-07T11:13:46;99565.63;;;19.28;63.00
9415;BME280;4746;35.664;139.738;2023-05-07T11:16:24;99561.16;;;19.31;62.89
9415;BME280;4746;35.664;139.738;2023-05-07T11:18:56;99557.00;;;19.27;62.90
9415;BME280;4746;35.664;139.738;2023-05-07T11:21:37;99556.09;;;19.28;62.88
9415;BME280;4746;35.664;139.738;2023-05-07T11:24:07;99570.16;;;19.23;63.05
9415;BME280;4746;35.664;139.738;2023-05-07T11:26:49;99562.31;;;19.24;63.05
9415;BME280;4746;35.664;139.738;2023-05-07T11:29:21;99553.50;;;19.28;63.59
9415;BME280;4746;35.664;139.738;2023-05-07T11:31:54;99548.34;;;19.27;63.14
9415;BME280;4746;35.664;139.738;2023-05-07T11:34:26;99575.47;;;19.20;62.90
9415;BME280;4746;35.664;139.738;2023-05-07T11:36:55;99576.41;;;19.17;62.89
9415;BME280;4746;35.664;139.738;2023-05-07T11:39:28;99566.84;;;19.19;62.91
9415;BME280;4746;35.664;139.738;2023-05-07T11:41:57;99568.53;;;19.20;63.38
9415;BME280;4746;35.664;139.738;2023-05-07T11:44:24;99569.44;;;19.19;62.65
9415;BME280;4746;35.664;139.738;2023-05-07T11:46:52;99562.53;;;19.18;63.00
9415;BME280;4746;35.664;139.738;2023-05-07T11:49:20;99559.03;;;19.19;63.17
9415;BME280;4746;35.664;139.738;2023-05-07T11:51:47;99547.81;;;19.19;63.01
9415;BME280;4746;35.664;139.738;2023-05-07T11:54:17;99520.75;;;19.24;62.85
9415;BME280;4746;35.664;139.738;2023-05-07T11:56:45;99510.25;;;19.27;63.03
9415;BME280;4746;35.664;139.738;2023-05-07T11:59:17;99499.47;;;19.36;62.90
9415;BME280;4746;35.664;139.738;2023-05-07T12:01:48;99496.81;;;19.38;62.87
9415;BME280;4746;35.664;139.738;2023-05-07T12:04:20;99502.69;;;19.43;62.95
9415;BME280;4746;35.664;139.738;2023-05-07T12:06:48;99487.03;;;19.44;62.95
9415;BME280;4746;35.664;139.738;2023-05-07T12:09:18;99475.59;;;19.48;62.88
9415;BME280;4746;35.664;139.738;2023-05-07T12:11:47;99477.13;;;19.53;62.59
9415;BME280;4746;35.664;139.738;2023-05-07T12:14:14;99474.47;;;19.55;62.11
9415;BME280;4746;35.664;139.738;2023-05-07T12:16:46;99474.28;;;19.59;62.10
9415;BME280;4746;35.664;139.738;2023-05-07T12:19:14;99458.63;;;19.61;62.13
9415;BME280;4746;35.664;139.738;2023-05-07T12:21:42;99461.31;;;19.58;61.83
9415;BME280;4746;35.664;139.738;2023-05-07T12:24:10;99451.72;;;19.60;61.58
9415;BME280;4746;35.664;139.738;2023-05-07T12:26:40;99457.47;;;19.68;61.71
9415;BME280;4746;35.664;139.738;2023-05-07T12:29:08;99439.00;;;19.74;61.93
9415;BME280;4746;35.664;139.738;2023-05-07T12:31:36;99441.47;;;19.77;61.19
9415;BME280;4746;35.664;139.738;2023-05-07T12:34:03;99451.94;;;19.75;61.02
9415;BME280;4746;35.664;139.738;2023-05-07T12:36:40;99442.19;;;19.80;60.98
9415;BME280;4746;35.664;139.738;2023-05-07T12:39:09;99446.59;;;19.78;61.32
9415;BME280;4746;35.664;139.738;2023-05-07T12:41:57;99433.22;;;19.87;61.52
9415;BME280;4746;35.664;139.738;2023-05-07T12:44:32;99421.72;;;19.93;61.33
9415;BME280;4746;35.664;139.738;2023-05-07T12:47:03;99425.22;;;19.92;60.93
9415;BME280;4746;35.664;139.738;2023-05-07T12:49:31;99432.91;;;19.95;61.07
9415;BME280;4746;35.664;139.738;2023-05-07T12:51:59;99422.84;;;20.07;60.93
9415;BME280;4746;35.664;139.738;2023-05-07T12:54:35;99426.13;;;20.11;60.73
9415;BME280;4746;35.664;139.738;2023-05-07T12:57:08;99407.66;;;20.17;60.74
9415;BME280;4746;35.664;139.738;2023-05-07T12:59:41;99398.84;;;20.19;60.65
9415;BME280;4746;35.664;139.738;2023-05-07T13:02:09;99396.84;;;20.25;60.64
9415;BME280;4746;35.664;139.738;2023-05-07T13:04:37;99414.00;;;20.29;60.62
9415;BME280;4746;35.664;139.738;2023-05-07T13:07:04;99399.03;;;20.34;60.01
9415;BME280;4746;35.664;139.738;2023-05-07T13:09:32;99393.81;;;20.34;60.04
9415;BME280;4746;35.664;139.738;2023-05-07T13:11:59;99381.59;;;20.36;60.40
9415;BME280;4746;35.664;139.738;2023-05-07T13:14:28;99359.72;;;20.40;60.29